Time,TemperatureF,DewpointF,PressureIn,WindDirection,WindDirectionDegrees,WindSpeedMPH,WindSpeedGustMPH,Humidity,HourlyPrecipIn,Conditions,Clouds,dailyrainin,SoftwareType,DateUTC
2013-10-31 00:00:00,81.0,77.8,29.93,East,79,2.0,8.0,90,0.00,RA,,0.00,WeatherDisplay:10.37,2013-10-31 06:00:00,
2013-10-31 00:15:00,81.1,78.2,29.92,East,86,2.0,7.0,91,0.00,CLR,,0.00,WeatherDisplay:10.37,2013-10-31 06:15:00,
2013-10-31 00:30:00,81.1,78.2,29.92,East,98,2.0,8.0,91,0.00,CLR,,0.00,WeatherDisplay:10.37,2013-10-31 06:30:00,
2013-10-31 00:45:00,81.5,78.3,29.91,ESE,105,3.0,8.0,90,0.00,CLR,,0.00,WeatherDisplay:10.37,2013-10-31 06:45:00,
2013-10-31 01:00:00,82.0,78.1,29.91,East,95,7.0,12.0,88,0.00,CLR,,0.00,WeatherDisplay:10.37,2013-10-31 07:00:00,
2013-10-31 01:15:00,82.5,78.6,29.90,East,93,6.0,13.0,88,0.00,CLR,,0.00,WeatherDisplay:10.37,2013-10-31 07:15:00,
2013-10-31 01:30:00,82.6,78.7,29.90,East,89,8.0,14.0,88,0.00,CLR,,0.00,WeatherDisplay:10.37,2013-10-31 07:30:00,
2013-10-31 01:45:00,81.9,78.0,29.90,East,92,3.0,16.0,88,0.00,CLR,,0.00,WeatherDisplay:10.37,2013-10-31 07:45:00,
2013-10-31 02:00:00,81.6,77.7,29.90,ENE,66,5.0,10.0,88,0.00,CLR,,0.00,WeatherDisplay:10.37,2013-10-31 08:00:00,
2013-10-31 02:15:00,81.8,77.9,29.90,East,79,6.0,12.0,88,0.00,CLR,,0.00,WeatherDisplay:10.37,2013-10-31 08:15:00,
2013-10-31 02:30:00,81.9,78.0,29.89,East,92,5.0,10.0,88,0.00,CLR,,0.00,WeatherDisplay:10.37,2013-10-31 08:30:00,
2013-10-31 02:45:00,82.3,78.4,29.89,East,92,3.0,10.0,88,0.00,CLR,,0.00,WeatherDisplay:10.37,2013-10-31 08:45:00,
2013-10-31 03:00:00,82.3,78.7,29.89,East,97,1.0,10.0,89,0.00,CLR,,0.00,WeatherDisplay:10.37,2013-10-31 09:00:00,
2013-10-31 03:15:00,82.5,78.9,29.90,East,97,5.0,12.0,89,0.00,CLR,,0.00,WeatherDisplay:10.37,2013-10-31 09:15:00,
2013-10-31 03:30:00,82.6,79.0,29.90,East,98,6.0,9.0,89,0.00,CLR,,0.00,WeatherDisplay:10.37,2013-10-31 09:30:00,
2013-10-31 03:45:00,82.7,79.2,29.90,East,94,7.0,12.0,89,0.00,CLR,,0.00,WeatherDisplay:10.37,2013-10-31 09:45:00,
2013-10-31 04:00:00,82.6,79.4,29.90,East,88,5.0,8.0,90,0.00,CLR,,0.00,WeatherDisplay:10.37,2013-10-31 10:00:00,
2013-10-31 04:15:00,82.4,78.8,29.90,East,96,5.0,9.0,89,0.00,CLR,,0.00,WeatherDisplay:10.37,2013-10-31 10:15:00,
2013-10-31 04:30:00,82.7,79.1,29.90,ESE,102,9.0,15.0,89,0.00,CLR,,0.00,WeatherDisplay:10.37,2013-10-31 10:30:00,
2013-10-31 04:45:00,82.1,78.2,29.90,East,100,5.0,16.0,88,0.00,CLR,,0.00,WeatherDisplay:10.37,2013-10-31 10:45:00,
2013-10-31 05:00:00,82.7,78.1,29.91,East,93,6.0,13.0,86,0.00,CLR,,0.00,WeatherDisplay:10.37,2013-10-31 11:00:00,
2013-10-31 05:15:00,81.6,78.0,29.91,East,89,8.0,15.0,89,0.01,RA,,0.01,WeatherDisplay:10.37,2013-10-31 11:15:00,
2013-10-31 05:30:00,81.0,76.7,29.91,East,87,3.0,10.0,87,0.00,CLR,,0.01,WeatherDisplay:10.37,2013-10-31 11:30:00,
2013-10-31 05:45:00,81.4,77.5,29.92,ENE,69,2.0,6.0,88,0.00,CLR,,0.01,WeatherDisplay:10.37,2013-10-31 11:45:00,
2013-10-31 06:00:00,81.8,77.9,29.93,East,82,7.0,14.0,88,0.00,CLR,,0.01,WeatherDisplay:10.37,2013-10-31 12:00:00,
2013-10-31 06:15:00,78.9,76.0,29.92,WSW,258,16.0,20.0,91,0.28,RA,,0.29,WeatherDisplay:10.37,2013-10-31 12:15:00,
2013-10-31 06:30:00,78.0,75.5,29.94,SW,225,3.0,21.0,92,0.04,RA,,0.33,WeatherDisplay:10.37,2013-10-31 12:30:00,
2013-10-31 06:45:00,78.5,76.3,29.94,SW,220,0.0,3.0,93,0.00,CLR,,0.33,WeatherDisplay:10.37,2013-10-31 12:45:00,
2013-10-31 07:00:00,79.6,77.7,29.94,ESE,103,5.0,7.0,94,0.00,CLR,,0.33,WeatherDisplay:10.37,2013-10-31 13:00:00,
2013-10-31 07:15:00,81.4,78.9,29.95,ESE,109,5.0,13.0,92,0.00,CLR,,0.33,WeatherDisplay:10.37,2013-10-31 13:15:00,
2013-10-31 07:30:00,83.0,79.7,29.95,East,92,2.0,14.0,90,0.00,CLR,,0.33,WeatherDisplay:10.37,2013-10-31 13:30:00,
2013-10-31 07:45:00,83.1,79.2,29.96,ESE,102,6.0,14.0,88,0.00,CLR,,0.33,WeatherDisplay:10.37,2013-10-31 13:45:00,
2013-10-31 08:00:00,83.0,78.7,29.96,ESE,109,5.0,12.0,87,0.00,CLR,,0.33,WeatherDisplay:10.37,2013-10-31 14:00:00,
2013-10-31 08:15:00,82.6,78.7,29.97,ESE,110,20.0,23.0,88,0.00,CLR,,0.33,WeatherDisplay:10.37,2013-10-31 14:15:00,
2013-10-31 08:30:00,80.5,77.3,29.98,ESE,121,18.0,25.0,90,0.00,CLR,,0.33,WeatherDisplay:10.37,2013-10-31 14:30:00,
2013-10-31 08:45:00,78.4,75.2,29.98,ESE,117,3.0,24.0,90,0.06,RA,,0.39,WeatherDisplay:10.37,2013-10-31 14:45:00,
2013-10-31 09:00:00,80.3,77.4,29.98,ESE,105,7.0,16.0,91,0.00,CLR,,0.39,WeatherDisplay:10.37,2013-10-31 15:00:00,
2013-10-31 09:15:00,81.0,78.1,29.98,East,81,9.0,18.0,91,0.00,CLR,,0.39,WeatherDisplay:10.37,2013-10-31 15:15:00,
2013-10-31 09:30:00,82.7,78.5,29.98,East,91,8.0,15.0,87,0.00,CLR,,0.39,WeatherDisplay:10.37,2013-10-31 15:30:00,
2013-10-31 09:45:00,83.8,79.2,29.98,East,100,5.0,14.0,86,0.00,CLR,,0.39,WeatherDisplay:10.37,2013-10-31 15:45:00,
2013-10-31 10:00:00,84.3,79.3,29.98,ESE,102,9.0,13.0,85,0.00,CLR,,0.39,WeatherDisplay:10.37,2013-10-31 16:00:00,
2013-10-31 10:15:00,84.5,79.8,29.97,East,101,5.0,13.0,86,0.00,CLR,,0.39,WeatherDisplay:10.37,2013-10-31 16:15:00,
2013-10-31 10:30:00,84.7,80.0,29.97,ESE,103,9.0,13.0,86,0.01,RA,,0.40,WeatherDisplay:10.37,2013-10-31 16:30:00,
2013-10-31 10:45:00,85.4,79.6,29.96,ESE,112,10.0,14.0,83,0.00,CLR,,0.40,WeatherDisplay:10.37,2013-10-31 16:45:00,
2013-10-31 11:00:00,85.6,79.5,29.96,ESE,108,10.0,15.0,82,0.00,CLR,,0.40,WeatherDisplay:10.37,2013-10-31 17:00:00,
2013-10-31 11:15:00,85.0,79.3,29.94,ESE,111,6.0,13.0,83,0.00,CLR,,0.40,WeatherDisplay:10.37,2013-10-31 17:15:00,
2013-10-31 11:30:00,86.4,79.8,29.93,East,98,6.0,10.0,81,0.00,CLR,,0.40,WeatherDisplay:10.37,2013-10-31 17:30:00,
2013-10-31 11:45:00,86.7,79.8,29.93,East,90,3.0,8.0,80,0.00,CLR,,0.40,WeatherDisplay:10.37,2013-10-31 17:45:00,
2013-10-31 12:00:00,86.6,79.7,29.92,East,101,5.0,14.0,80,0.00,CLR,,0.40,WeatherDisplay:10.37,2013-10-31 18:00:00,
2013-10-31 12:15:00,86.4,79.9,29.92,East,97,8.0,14.0,81,0.00,CLR,,0.40,WeatherDisplay:10.37,2013-10-31 18:15:00,
2013-10-31 12:30:00,85.9,79.8,29.91,ESE,102,8.0,16.0,82,0.00,CLR,,0.40,WeatherDisplay:10.37,2013-10-31 18:30:00,
2013-10-31 12:45:00,86.1,79.6,29.90,ESE,109,6.0,15.0,81,0.00,CLR,,0.40,WeatherDisplay:10.37,2013-10-31 18:45:00,
2013-10-31 13:00:00,85.9,79.0,29.89,East,99,10.0,14.0,80,0.00,CLR,,0.40,WeatherDisplay:10.37,2013-10-31 19:00:00,
2013-10-31 13:15:00,86.1,80.0,29.88,East,100,7.0,13.0,82,0.00,CLR,,0.40,WeatherDisplay:10.37,2013-10-31 19:15:00,
2013-10-31 13:30:00,86.1,80.0,29.88,ESE,107,7.0,13.0,82,0.00,CLR,,0.40,WeatherDisplay:10.37,2013-10-31 19:30:00,
2013-10-31 13:45:00,86.0,79.8,29.87,ESE,105,8.0,13.0,82,0.00,CLR,,0.40,WeatherDisplay:10.37,2013-10-31 19:45:00,
2013-10-31 14:00:00,86.0,79.5,29.86,ESE,112,9.0,13.0,81,0.00,CLR,,0.40,WeatherDisplay:10.37,2013-10-31 20:00:00,
2013-10-31 14:15:00,86.1,80.0,29.86,ESE,102,9.0,13.0,82,0.00,CLR,,0.40,WeatherDisplay:10.37,2013-10-31 20:15:00,
2013-10-31 14:30:00,85.8,80.1,29.86,East,90,6.0,16.0,83,0.00,CLR,,0.40,WeatherDisplay:10.37,2013-10-31 20:30:00,
2013-10-31 14:45:00,85.8,80.0,29.86,ESE,102,7.0,13.0,83,0.00,CLR,,0.40,WeatherDisplay:10.37,2013-10-31 20:45:00,
2013-10-31 15:00:00,85.4,80.0,29.86,East,101,7.0,16.0,84,0.00,CLR,,0.40,WeatherDisplay:10.37,2013-10-31 21:00:00,
2013-10-31 15:15:00,85.5,80.1,29.86,ESE,106,7.0,13.0,84,0.00,CLR,,0.40,WeatherDisplay:10.37,2013-10-31 21:15:00,
2013-10-31 15:30:00,85.3,80.3,29.86,East,93,5.0,15.0,85,0.00,CLR,,0.40,WeatherDisplay:10.37,2013-10-31 21:30:00,
2013-10-31 15:45:00,84.8,79.8,29.85,East,92,9.0,16.0,85,0.00,CLR,,0.40,WeatherDisplay:10.37,2013-10-31 21:45:00,
2013-10-31 16:00:00,84.6,79.2,29.85,East,99,5.0,14.0,84,0.00,CLR,,0.40,WeatherDisplay:10.37,2013-10-31 22:00:00,
2013-10-31 16:15:00,84.6,78.9,29.85,ESE,106,6.0,12.0,83,0.00,CLR,,0.40,WeatherDisplay:10.37,2013-10-31 22:15:00,
2013-10-31 16:26:00,84.6,78.1,29.85,East,98,7.0,12.0,81,0.00,CLR,,0.40,WeatherDisplay:10.37,2013-10-31 22:26:00,
2013-10-31 16:45:00,84.4,77.9,29.85,East,95,10.0,14.0,81,0.00,CLR,,0.40,WeatherDisplay:10.37,2013-10-31 22:45:00,
2013-10-31 17:00:00,84.2,78.8,29.86,East,88,3.0,13.0,84,0.00,CLR,,0.40,WeatherDisplay:10.37,2013-10-31 23:00:00,
2013-10-31 17:15:00,83.9,78.9,29.86,ESE,102,6.0,10.0,85,0.00,CLR,,0.40,WeatherDisplay:10.37,2013-10-31 23:15:00,
2013-10-31 17:30:00,83.7,78.7,29.87,East,101,5.0,10.0,85,0.00,CLR,,0.40,WeatherDisplay:10.37,2013-10-31 23:30:00,
2013-10-31 17:45:00,83.7,79.4,29.87,ESE,111,5.0,12.0,87,0.00,CLR,,0.40,WeatherDisplay:10.37,2013-10-31 23:45:00,
2013-10-31 18:00:00,83.6,79.3,29.88,East,101,5.0,12.0,87,0.00,CLR,,0.40,WeatherDisplay:10.37,2013-11-01 00:00:00,
2013-10-31 18:15:00,83.6,79.3,29.89,ESE,109,8.0,12.0,87,0.00,CLR,,0.40,WeatherDisplay:10.37,2013-11-01 00:15:00,
2013-10-31 18:30:00,83.6,79.0,29.89,ESE,108,13.0,14.0,86,0.00,CLR,,0.40,WeatherDisplay:10.37,2013-11-01 00:30:00,
2013-10-31 18:45:00,83.9,79.2,29.90,ESE,113,12.0,15.0,86,0.00,CLR,,0.40,WeatherDisplay:10.37,2013-11-01 00:45:00,
2013-10-31 19:00:00,83.9,79.6,29.91,ESE,108,10.0,15.0,87,0.00,CLR,,0.40,WeatherDisplay:10.37,2013-11-01 01:00:00,
2013-10-31 19:15:00,83.9,79.6,29.91,ESE,106,10.0,14.0,87,0.00,CLR,,0.40,WeatherDisplay:10.37,2013-11-01 01:15:00,
2013-10-31 19:30:00,83.8,79.5,29.91,ESE,105,6.0,14.0,87,0.00,CLR,,0.40,WeatherDisplay:10.37,2013-11-01 01:30:00,
2013-10-31 19:45:00,83.8,79.5,29.91,ESE,114,12.0,14.0,87,0.00,CLR,,0.40,WeatherDisplay:10.37,2013-11-01 01:45:00,
2013-10-31 20:00:00,83.7,79.8,29.91,East,99,6.0,13.0,88,0.00,CLR,,0.40,WeatherDisplay:10.37,2013-11-01 02:00:00,
2013-10-31 20:15:00,83.7,79.8,29.91,East,96,7.0,15.0,88,0.00,CLR,,0.40,WeatherDisplay:10.37,2013-11-01 02:15:00,
2013-10-31 20:30:00,83.6,79.3,29.91,ESE,110,7.0,16.0,87,0.00,CLR,,0.40,WeatherDisplay:10.37,2013-11-01 02:30:00,
2013-10-31 20:45:00,83.7,79.7,29.91,ESE,102,7.0,16.0,88,0.00,CLR,,0.40,WeatherDisplay:10.37,2013-11-01 02:45:00,
2013-10-31 21:00:00,83.7,79.4,29.90,East,99,6.0,18.0,87,0.00,CLR,,0.40,WeatherDisplay:10.37,2013-11-01 03:00:00,
2013-10-31 21:15:00,83.6,79.3,29.90,East,96,8.0,15.0,87,0.00,CLR,,0.40,WeatherDisplay:10.37,2013-11-01 03:15:00,
2013-10-31 21:30:00,83.6,79.3,29.90,East,97,8.0,16.0,87,0.00,CLR,,0.40,WeatherDisplay:10.37,2013-11-01 03:30:00,
2013-10-31 21:45:00,83.6,79.3,29.90,East,95,7.0,18.0,87,0.00,CLR,,0.40,WeatherDisplay:10.37,2013-11-01 03:45:00,
2013-10-31 22:00:00,83.5,79.2,29.90,East,101,7.0,16.0,87,0.00,CLR,,0.40,WeatherDisplay:10.37,2013-11-01 04:00:00,
2013-10-31 22:15:00,83.6,79.3,29.90,ESE,105,8.0,18.0,87,0.00,CLR,,0.40,WeatherDisplay:10.37,2013-11-01 04:15:00,
2013-10-31 22:30:00,83.6,79.7,29.90,ESE,107,7.0,15.0,88,0.00,CLR,,0.40,WeatherDisplay:10.37,2013-11-01 04:30:00,
2013-10-31 22:45:00,83.6,79.6,29.90,East,99,7.0,15.0,88,0.00,CLR,,0.40,WeatherDisplay:10.37,2013-11-01 04:45:00,
2013-10-31 23:00:00,83.6,79.7,29.90,ESE,103,10.0,14.0,88,0.00,CLR,,0.40,WeatherDisplay:10.37,2013-11-01 05:00:00,
2013-10-31 23:15:00,83.6,79.0,29.90,ESE,116,12.0,15.0,86,0.00,CLR,,0.40,WeatherDisplay:10.37,2013-11-01 05:15:00,
2013-10-31 23:30:00,83.6,79.3,29.90,ESE,104,12.0,15.0,87,0.00,CLR,,0.40,WeatherDisplay:10.37,2013-11-01 05:30:00,
2013-10-31 23:45:00,83.6,79.3,29.90,ESE,114,13.0,16.0,87,0.00,CLR,,0.40,WeatherDisplay:10.37,2013-11-01 05:45:00,